Time;durP1;ratioP1;P1;durP2;ratioP2;P2;SDS_P1;SDS_P2;PMS_P1;PMS_P2;Temp;Humidity;BMP_temperature;BMP_pressure;BME280_temperature;BME280_humidity;BME280_pressure;Samples;Min_cycle;Max_cycle;Signal;HPM_P1;HPM_P2
2022/01/23 00:02:27;;;;;;;;;;;;;;;-5.08;67.55;99969.97;4951276;29;1087;-56
2022/01/23 00:04:54;;;;;;;;;;;;;;;-5.12;67.47;99975.16;4951527;29;908;-56
2022/01/23 00:07:20;;;;;;;;;;;;;;;-5.10;67.37;99970.25;4951157;29;946;-56
2022/01/23 00:09:46;;;;;;;;;;;;;;;-5.08;67.30;99970.75;4950938;29;1961;-56
2022/01/23 00:12:20;;;;;;;;;;;;;;;-5.09;67.03;99960.28;4951157;29;885;-56
2022/01/23 00:17:34;;;;;;;;;;;;;;;-5.10;66.50;99969.44;4951122;29;696;-56
2022/01/23 00:20:01;;;;;;;;;;;;;;;-5.18;66.98;99981.72;4951121;29;868;-56
2022/01/23 00:22:39;;;;;;;;;;;;;;;-5.27;66.98;99981.56;4950879;29;1031;-56
2022/01/23 00:30:36;;;;;;;;;;;;;;;-5.26;66.75;99983.16;5011485;28;1977;-56
2022/01/23 00:33:04;;;;;;;;;;;;;;;-5.26;66.48;99987.75;5011744;28;774;-56
2022/01/23 00:35:31;;;;;;;;;;;;;;;-5.33;66.49;99990.81;5011975;28;1034;-56
2022/01/23 00:37:58;;;;;;;;;;;;;;;-5.35;66.65;99985.72;5011551;28;1149;-56
2022/01/23 00:40:25;;;;;;;;;;;;;;;-5.28;66.63;99981.88;4993942;28;930;-56
2022/01/23 00:42:56;;;;;;;;;;;;;;;-5.28;66.01;99974.56;5011542;28;810;-56
2022/01/23 00:45:31;;;;;;;;;;;;;;;-5.16;65.38;99974.94;5011424;28;892;-56
2022/01/23 00:48:03;;;;;;;;;;;;;;;-5.19;65.67;99978.19;5011186;28;868;-56
2022/01/23 00:50:30;;;;;;;;;;;;;;;-5.37;66.35;99979.81;5011010;28;1886;-56
2022/01/23 00:52:57;;;;;;;;;;;;;;;-5.43;66.47;99981.00;5011128;28;833;-56
2022/01/23 00:55:24;;;;;;;;;;;;;;;-5.50;66.80;99975.16;5012027;28;865;-56
2022/01/23 00:57:49;;;;;;;;;;;;;;;-5.55;66.72;99981.44;5014755;28;837;-56
2022/01/23 01:00:16;;;;;;;;;;;;;;;-5.62;66.58;99969.41;5014639;28;900;-56
2022/01/23 01:02:42;;;;;;;;;;;;;;;-5.71;67.38;99973.84;5014509;28;856;-56
2022/01/23 01:05:09;;;;;;;;;;;;;;;-5.66;67.04;99968.38;5014540;28;809;-56
2022/01/23 01:07:36;;;;;;;;;;;;;;;-5.66;66.87;99968.38;5014505;28;856;-56
2022/01/23 01:10:08;;;;;;;;;;;;;;;-5.84;67.71;99961.91;5014274;28;1877;-56
2022/01/23 01:12:41;;;;;;;;;;;;;;;-5.88;67.75;99961.66;5014560;28;892;-56
2022/01/23 01:33:55;;;;;;;;;;;;;;;-5.14;64.42;99986.22;5013920;28;1226;-57
2022/01/23 01:36:38;;;;;;;;;;;;;;;-5.11;64.29;99981.34;5014157;28;844;-55
2022/01/23 01:39:05;;;;;;;;;;;;;;;-5.17;64.39;99978.69;5013891;28;888;-55
2022/01/23 01:41:35;;;;;;;;;;;;;;;-5.07;63.96;99985.06;5013919;28;901;-55
2022/01/23 01:44:02;;;;;;;;;;;;;;;-5.13;63.92;99987.81;5013882;28;833;-56
2022/01/23 01:46:29;;;;;;;;;;;;;;;-5.17;64.04;99980.59;5013803;28;1005;-55
2022/01/23 01:48:55;;;;;;;;;;;;;;;-5.21;64.54;99991.16;5013772;28;1925;-55
2022/01/23 01:51:23;;;;;;;;;;;;;;;-5.25;64.20;99994.75;5013754;28;829;-56
2022/01/23 01:53:54;;;;;;;;;;;;;;;-5.28;64.33;99989.94;5013481;28;947;-56
2022/01/23 01:56:20;;;;;;;;;;;;;;;-5.22;63.50;99991.47;5014147;28;900;-56
2022/01/23 02:09:41;;;;;;;;;;;;;;;-5.09;61.43;100000.72;5013575;28;1886;-57
2022/01/23 02:23:08;;;;;;;;;;;;;;;-4.68;58.98;100006.25;5013488;28;698;-56
2022/01/23 02:55:48;;;;;;;;;;;;;;;-5.18;60.84;100027.53;5012542;28;635;-55
2022/01/23 02:58:20;;;;;;;;;;;;;;;-5.22;60.87;100035.38;5012434;28;936;-55
2022/01/23 03:01:07;;;;;;;;;;;;;;;-5.29;60.75;100043.03;5012409;28;880;-56
2022/01/23 03:03:38;;;;;;;;;;;;;;;-5.34;61.05;100048.50;5012781;28;864;-56
2022/01/23 03:11:57;;;;;;;;;;;;;;;-5.12;59.58;100061.41;5012311;28;796;-56
2022/01/23 03:34:50;;;;;;;;;;;;;;;-5.29;60.25;100061.91;4992448;28;1052;-56
2022/01/23 03:37:17;;;;;;;;;;;;;;;-5.26;60.48;100061.31;4992035;28;890;-56
2022/01/23 03:39:43;;;;;;;;;;;;;;;-5.24;60.44;100053.75;4974651;28;807;-56
2022/01/23 03:42:10;;;;;;;;;;;;;;;-5.25;60.71;100062.94;4992263;28;896;-55
2022/01/23 03:44:40;;;;;;;;;;;;;;;-5.36;61.27;100070.31;4992085;28;857;-55
2022/01/23 03:50:04;;;;;;;;;;;;;;;-5.42;61.73;100074.19;4970819;28;1958;-56
2022/01/23 03:52:31;;;;;;;;;;;;;;;-5.45;61.93;100082.84;4991968;28;920;-55
2022/01/23 03:54:56;;;;;;;;;;;;;;;-5.47;62.33;100082.31;4991968;28;924;-56
2022/01/23 03:57:23;;;;;;;;;;;;;;;-5.39;62.61;100094.38;4991992;28;817;-56
2022/01/23 03:59:49;;;;;;;;;;;;;;;-5.38;62.46;100082.47;4992055;28;944;-56
2022/01/23 04:02:16;;;;;;;;;;;;;;;-5.37;62.35;100087.59;4991984;28;848;-56
2022/01/23 04:04:43;;;;;;;;;;;;;;;-5.50;63.09;100099.09;4991919;28;905;-56
2022/01/23 04:07:22;;;;;;;;;;;;;;;-5.64;63.81;100098.16;4991690;28;909;-55
2022/01/23 04:09:49;;;;;;;;;;;;;;;-5.78;64.56;100096.16;4991790;28;1886;-56
2022/01/23 04:14:57;;;;;;;;;;;;;;;-5.52;64.56;100095.88;4996666;28;1393;-56
2022/01/23 04:33:49;;;;;;;;;;;;;;;-5.54;65.28;100101.53;5015446;28;682;-56
2022/01/23 05:01:05;;;;;;;;;;;;;;;-5.60;66.69;100101.88;5015018;28;620;-56
2022/01/23 05:03:47;;;;;;;;;;;;;;;-5.69;67.45;100093.66;5014889;28;1051;-56
2022/01/23 05:06:23;;;;;;;;;;;;;;;-5.67;67.40;100114.91;5014501;28;955;-56
2022/01/23 05:08:50;;;;;;;;;;;;;;;-5.68;68.05;100119.47;5014538;28;1879;-56
2022/01/23 05:11:18;;;;;;;;;;;;;;;-5.72;67.47;100113.03;5014441;28;817;-56
2022/01/23 05:13:44;;;;;;;;;;;;;;;-5.78;68.04;100114.22;5015163;28;833;-56
2022/01/23 05:16:11;;;;;;;;;;;;;;;-5.75;68.88;100121.72;5014122;28;1458;-56
2022/01/23 05:18:38;;;;;;;;;;;;;;;-5.65;68.31;100118.13;5014505;28;951;-56
2022/01/23 05:23:38;;;;;;;;;;;;;;;-5.75;67.87;100135.97;5014214;28;761;-56
2022/01/23 05:26:05;;;;;;;;;;;;;;;-5.91;68.70;100136.41;5014303;28;837;-56
2022/01/23 05:28:30;;;;;;;;;;;;;;;-5.99;69.09;100130.59;5014381;28;1055;-56
2022/01/23 05:30:57;;;;;;;;;;;;;;;-6.04;69.45;100130.66;5014048;28;2037;-56
2022/01/23 05:33:23;;;;;;;;;;;;;;;-6.10;69.66;100131.78;5014110;28;821;-56
2022/01/23 05:35:50;;;;;;;;;;;;;;;-6.07;69.76;100128.50;5014566;28;927;-56
2022/01/23 05:38:17;;;;;;;;;;;;;;;-6.14;69.75;100143.38;5014104;28;876;-56
2022/01/23 05:40:44;;;;;;;;;;;;;;;-6.26;70.00;100135.69;5014018;28;813;-56
2022/01/23 05:43:11;;;;;;;;;;;;;;;-6.22;70.28;100144.81;5013825;28;967;-56
2022/01/23 05:45:41;;;;;;;;;;;;;;;-6.07;70.39;100152.75;5014078;28;825;-56
2022/01/23 05:48:08;;;;;;;;;;;;;;;-6.07;70.22;100160.81;5013651;28;885;-56
2022/01/23 05:50:35;;;;;;;;;;;;;;;-6.07;70.61;100165.41;4996133;28;1902;-56
2022/01/23 05:53:02;;;;;;;;;;;;;;;-6.15;70.78;100166.78;5013648;28;876;-56
2022/01/23 05:55:29;;;;;;;;;;;;;;;-6.11;70.85;100167.84;5013749;28;837;-56
2022/01/23 05:57:55;;;;;;;;;;;;;;;-5.95;70.61;100168.53;5013594;28;868;-56
2022/01/23 06:00:21;;;;;;;;;;;;;;;-5.72;70.25;100182.25;5013566;28;860;-56
2022/01/23 06:02:48;;;;;;;;;;;;;;;-5.41;69.38;100172.78;5013506;28;829;-56
2022/01/23 06:05:14;;;;;;;;;;;;;;;-5.17;68.53;100175.44;5013358;28;821;-56
2022/01/23 06:07:42;;;;;;;;;;;;;;;-4.91;67.60;100183.22;5013699;28;888;-56
2022/01/23 06:10:15;;;;;;;;;;;;;;;-4.70;66.95;100180.25;5013343;28;1891;-56
2022/01/23 06:12:42;;;;;;;;;;;;;;;-4.42;65.91;100187.38;4995752;28;1389;-56
2022/01/23 06:15:09;;;;;;;;;;;;;;;-4.22;64.96;100183.59;5013012;28;1262;-56
2022/01/23 06:17:35;;;;;;;;;;;;;;;-3.99;64.25;100197.25;5013228;28;998;-56
2022/01/23 06:20:02;;;;;;;;;;;;;;;-3.86;63.74;100191.09;5013123;28;880;-56
2022/01/23 06:22:29;;;;;;;;;;;;;;;-3.70;62.81;100197.81;5013167;28;833;-56
2022/01/23 06:24:55;;;;;;;;;;;;;;;-3.51;62.49;100208.56;5013017;28;889;-56
2022/01/23 06:27:22;;;;;;;;;;;;;;;-3.22;61.74;100210.22;5013148;28;885;-56
2022/01/23 06:29:49;;;;;;;;;;;;;;;-2.89;61.30;100212.78;5012800;28;1964;-56
2022/01/23 06:32:15;;;;;;;;;;;;;;;-2.76;60.80;100206.56;5013035;28;884;-56
2022/01/23 06:34:42;;;;;;;;;;;;;;;-2.70;60.27;100208.06;5012953;28;1038;-56
2022/01/23 06:37:08;;;;;;;;;;;;;;;-2.52;59.63;100216.34;5013088;28;829;-56
2022/01/23 06:39:35;;;;;;;;;;;;;;;-2.43;58.69;100216.41;5012941;28;832;-56
2022/01/23 06:42:01;;;;;;;;;;;;;;;-2.22;59.10;100214.84;5012832;28;864;-56
2022/01/23 06:44:28;;;;;;;;;;;;;;;-2.26;57.26;100208.44;4995104;28;1503;-56
2022/01/23 06:46:55;;;;;;;;;;;;;;;-2.09;57.73;100205.06;5012758;28;852;-56
2022/01/23 06:49:22;;;;;;;;;;;;;;;-1.94;56.33;100207.41;5012832;28;1947;-55
2022/01/23 06:51:49;;;;;;;;;;;;;;;-1.85;57.17;100213.69;4995008;28;955;-56
2022/01/23 06:54:15;;;;;;;;;;;;;;;-1.60;56.32;100214.16;5011966;28;963;-56
2022/01/23 06:56:42;;;;;;;;;;;;;;;-1.56;56.29;100201.56;5012511;28;1038;-56
2022/01/23 06:59:09;;;;;;;;;;;;;;;-1.31;55.04;100210.13;5012531;28;923;-56
2022/01/23 07:01:35;;;;;;;;;;;;;;;-1.09;55.72;100199.22;5012413;28;976;-56
2022/01/23 07:04:02;;;;;;;;;;;;;;;-0.60;55.64;100206.50;5012535;28;877;-56
2022/01/23 07:06:28;;;;;;;;;;;;;;;-0.75;54.48;100203.13;5012632;28;817;-56
2022/01/23 07:08:55;;;;;;;;;;;;;;;-0.76;53.81;100200.75;5012514;28;1882;-55
2022/01/23 07:11:22;;;;;;;;;;;;;;;-0.80;53.86;100197.06;5012469;28;909;-55
2022/01/23 07:13:48;;;;;;;;;;;;;;;-1.03;53.82;100203.38;5012380;28;877;-56
2022/01/23 07:16:14;;;;;;;;;;;;;;;-0.91;54.14;100194.63;5012264;28;1425;-55
2022/01/23 07:18:41;;;;;;;;;;;;;;;-0.72;53.95;100190.84;5012181;28;908;-55
2022/01/23 07:21:07;;;;;;;;;;;;;;;-0.47;53.89;100194.69;5012163;28;892;-55
2022/01/23 07:23:34;;;;;;;;;;;;;;;-0.33;53.40;100197.25;5012120;28;833;-55
2022/01/23 07:26:00;;;;;;;;;;;;;;;-0.28;54.36;100194.38;5012231;28;841;-55
2022/01/23 07:28:37;;;;;;;;;;;;;;;-0.26;52.59;100189.41;5012005;28;805;-55
2022/01/23 07:31:05;;;;;;;;;;;;;;;-0.55;52.28;100200.94;5011898;28;1915;-56
2022/01/23 07:33:33;;;;;;;;;;;;;;;-0.37;51.86;100207.16;5012020;28;889;-57
2022/01/23 07:36:01;;;;;;;;;;;;;;;-0.11;52.75;100191.66;5012227;28;1004;-57
2022/01/23 07:38:28;;;;;;;;;;;;;;;0.26;52.32;100194.81;5011837;28;947;-57
2022/01/23 07:40:54;;;;;;;;;;;;;;;0.29;51.03;100198.78;5011796;28;895;-57
2022/01/23 07:43:20;;;;;;;;;;;;;;;0.30;50.87;100192.22;5011887;28;857;-57
2022/01/23 07:45:47;;;;;;;;;;;;;;;0.32;51.44;100189.97;5011747;28;864;-55
2022/01/23 07:48:13;;;;;;;;;;;;;;;0.22;50.42;100191.13;5011800;28;849;-55
2022/01/23 07:50:40;;;;;;;;;;;;;;;-0.09;51.99;100194.84;5011590;28;1894;-55
2022/01/23 07:53:06;;;;;;;;;;;;;;;0.04;50.52;100203.16;5011824;28;920;-55
2022/01/23 07:55:32;;;;;;;;;;;;;;;-0.17;51.65;100192.13;4994283;28;911;-55
2022/01/23 07:58:05;;;;;;;;;;;;;;;-0.32;50.89;100201.56;5011659;28;871;-56
2022/01/23 08:00:33;;;;;;;;;;;;;;;-0.28;50.93;100194.38;5011628;28;888;-57
2022/01/23 08:02:59;;;;;;;;;;;;;;;-0.64;52.15;100209.03;5011502;28;936;-57
2022/01/23 08:05:26;;;;;;;;;;;;;;;-0.60;52.33;100203.78;5012668;28;857;-57
2022/01/23 08:07:52;;;;;;;;;;;;;;;-0.35;51.50;100205.72;5015644;28;821;-57
2022/01/23 08:10:19;;;;;;;;;;;;;;;0.13;51.17;100214.81;5015789;28;1955;-57
2022/01/23 08:12:46;;;;;;;;;;;;;;;0.46;50.00;100217.78;5015810;28;885;-55
2022/01/23 08:15:11;;;;;;;;;;;;;;;0.38;48.58;100218.59;5015161;28;1241;-56
2022/01/23 08:17:38;;;;;;;;;;;;;;;0.68;50.82;100219.47;5015509;28;896;-55
2022/01/23 08:20:04;;;;;;;;;;;;;;;0.77;50.44;100222.97;5015429;28;887;-56
2022/01/23 08:22:33;;;;;;;;;;;;;;;0.52;47.58;100229.28;5015398;28;812;-55
2022/01/23 08:25:03;;;;;;;;;;;;;;;0.28;47.18;100217.03;5015249;28;905;-55
2022/01/23 08:27:30;;;;;;;;;;;;;;;0.50;48.58;100217.94;5015290;28;904;-55
2022/01/23 08:29:59;;;;;;;;;;;;;;;0.79;48.76;100214.47;5015166;28;1910;-55
2022/01/23 08:32:25;;;;;;;;;;;;;;;0.66;47.85;100212.75;5015204;28;856;-55
2022/01/23 08:34:52;;;;;;;;;;;;;;;1.21;48.17;100209.94;5015291;28;989;-55
2022/01/23 08:37:19;;;;;;;;;;;;;;;1.58;47.60;100212.91;5015083;28;924;-55
2022/01/23 08:39:45;;;;;;;;;;;;;;;1.48;46.75;100207.06;5015134;28;849;-55
2022/01/23 08:42:13;;;;;;;;;;;;;;;1.13;45.45;100208.06;5015073;28;844;-55
2022/01/23 08:44:39;;;;;;;;;;;;;;;0.50;46.56;100210.56;5014919;28;861;-55
2022/01/23 08:47:06;;;;;;;;;;;;;;;0.39;47.35;100204.69;5014955;28;1210;-55
2022/01/23 08:49:34;;;;;;;;;;;;;;;0.15;47.10;100212.56;5014925;28;1945;-55
2022/01/23 08:52:00;;;;;;;;;;;;;;;-0.33;46.93;100219.78;5015103;28;888;-55
2022/01/23 08:54:28;;;;;;;;;;;;;;;-0.78;48.26;100225.47;5014893;28;821;-55
2022/01/23 08:56:54;;;;;;;;;;;;;;;-0.79;48.60;100223.88;5014745;28;915;-54
2022/01/23 08:59:20;;;;;;;;;;;;;;;-0.67;48.66;100218.63;5014744;28;880;-55
2022/01/23 09:01:47;;;;;;;;;;;;;;;-0.65;48.98;100213.69;5014560;28;924;-56
2022/01/23 09:04:17;;;;;;;;;;;;;;;-0.46;48.85;100215.31;5014561;28;877;-55
2022/01/23 09:06:45;;;;;;;;;;;;;;;-0.16;48.38;100207.31;5014559;28;863;-55
2022/01/23 09:09:16;;;;;;;;;;;;;;;0.01;47.66;100215.47;5014437;28;1886;-56
2022/01/23 09:11:56;;;;;;;;;;;;;;;0.28;47.05;100208.06;5014455;28;991;-56
2022/01/23 09:14:23;;;;;;;;;;;;;;;0.35;46.57;100206.44;5014171;28;1264;-55
2022/01/23 09:16:50;;;;;;;;;;;;;;;0.75;46.40;100198.00;5013808;28;939;-55
2022/01/23 09:19:18;;;;;;;;;;;;;;;1.04;45.87;100211.97;5014243;28;920;-55
2022/01/23 09:21:45;;;;;;;;;;;;;;;0.55;45.75;100202.22;5014216;28;904;-55
2022/01/23 09:24:12;;;;;;;;;;;;;;;-0.11;46.99;100199.00;5014301;28;908;-56
2022/01/23 09:26:39;;;;;;;;;;;;;;;-0.33;47.80;100206.19;5014248;28;849;-57
2022/01/23 09:29:17;;;;;;;;;;;;;;;0.26;47.87;100207.59;5014285;28;1906;-57
2022/01/23 09:31:49;;;;;;;;;;;;;;;0.45;46.93;100189.00;5014175;28;888;-57
2022/01/23 09:34:16;;;;;;;;;;;;;;;0.16;47.24;100193.22;5014103;28;1048;-57
2022/01/23 09:36:43;;;;;;;;;;;;;;;0.35;47.43;100186.63;5014084;28;829;-57
2022/01/23 09:39:14;;;;;;;;;;;;;;;0.21;46.23;100194.97;5013994;28;853;-57
2022/01/23 09:41:45;;;;;;;;;;;;;;;-0.05;47.08;100189.56;5013890;28;904;-57
2022/01/23 09:44:13;;;;;;;;;;;;;;;-0.11;48.48;100180.78;5013790;28;948;-57
2022/01/23 09:46:41;;;;;;;;;;;;;;;0.08;47.86;100166.06;5014026;28;936;-57
2022/01/23 09:49:06;;;;;;;;;;;;;;;0.20;47.54;100175.13;5013740;28;1882;-57
2022/01/23 09:51:35;;;;;;;;;;;;;;;0.50;47.06;100166.25;5013783;28;824;-57
2022/01/23 09:54:01;;;;;;;;;;;;;;;0.56;47.25;100165.75;5013661;28;898;-57
2022/01/23 09:56:33;;;;;;;;;;;;;;;0.83;46.35;100171.84;5013678;28;825;-58
2022/01/23 09:59:00;;;;;;;;;;;;;;;0.96;45.47;100148.25;5013685;28;864;-57
2022/01/23 10:01:27;;;;;;;;;;;;;;;0.61;45.33;100162.03;5014042;28;909;-55
2022/01/23 10:03:53;;;;;;;;;;;;;;;0.22;46.10;100161.22;5013815;28;857;-57
2022/01/23 10:06:20;;;;;;;;;;;;;;;0.06;46.65;100160.94;5013465;28;841;-57
2022/01/23 10:08:47;;;;;;;;;;;;;;;-0.07;46.98;100162.72;5013347;28;834;-56
2022/01/23 10:11:14;;;;;;;;;;;;;;;0.05;46.73;100167.50;5013490;28;1945;-55
2022/01/23 10:13:41;;;;;;;;;;;;;;;-0.03;45.52;100171.03;5013223;28;982;-55
2022/01/23 10:16:08;;;;;;;;;;;;;;;0.09;45.12;100173.88;5013130;28;1262;-55
2022/01/23 10:18:34;;;;;;;;;;;;;;;-0.05;45.04;100159.69;5013228;28;837;-56
2022/01/23 10:21:01;;;;;;;;;;;;;;;0.00;45.46;100159.53;5013179;28;868;-56
2022/01/23 10:23:27;;;;;;;;;;;;;;;0.16;45.87;100155.16;5013223;28;911;-56
2022/01/23 10:25:54;;;;;;;;;;;;;;;0.03;45.33;100156.16;5012984;28;877;-56
2022/01/23 10:28:24;;;;;;;;;;;;;;;0.09;45.73;100146.72;5012156;28;1654;-56
2022/01/23 10:30:50;;;;;;;;;;;;;;;0.85;45.38;100149.78;5013113;28;1996;-56
2022/01/23 10:33:21;;;;;;;;;;;;;;;1.34;42.84;100144.66;5013427;28;952;-56
2022/01/23 10:35:55;;;;;;;;;;;;;;;1.01;42.41;100126.31;5013233;28;989;-56
2022/01/23 10:38:23;;;;;;;;;;;;;;;0.72;43.49;100140.72;5012877;28;927;-56
2022/01/23 10:41:02;;;;;;;;;;;;;;;0.90;43.42;100130.56;5012949;28;808;-57
2022/01/23 10:49:16;;;;;;;;;;;;;;;1.37;40.86;100125.72;5012930;28;1961;-56
2022/01/23 10:51:48;;;;;;;;;;;;;;;1.23;40.21;100119.75;5012708;28;848;-56
2022/01/23 10:54:16;;;;;;;;;;;;;;;1.35;40.69;100124.47;5012577;28;840;-56
2022/01/23 10:57:01;;;;;;;;;;;;;;;1.59;41.23;100104.72;5012470;28;964;-57
2022/01/23 10:59:44;;;;;;;;;;;;;;;1.68;40.66;100121.78;5012369;28;944;-58
2022/01/23 11:02:13;;;;;;;;;;;;;;;1.86;41.73;100121.59;5012497;28;813;-57
2022/01/23 11:04:51;;;;;;;;;;;;;;;2.18;40.21;100118.06;5012448;28;876;-57
2022/01/23 11:07:17;;;;;;;;;;;;;;;2.10;39.69;100112.72;5012421;28;893;-58
2022/01/23 11:09:44;;;;;;;;;;;;;;;2.03;41.91;100110.53;5012438;28;1946;-58
2022/01/23 11:12:41;;;;;;;;;;;;;;;2.04;40.01;100103.94;5012549;28;841;-58
2022/01/23 11:17:55;;;;;;;;;;;;;;;2.11;39.46;100101.44;5012219;28;628;-58
2022/01/23 11:20:39;;;;;;;;;;;;;;;1.97;39.09;100111.88;5012157;28;956;-56
2022/01/23 11:23:12;;;;;;;;;;;;;;;2.16;39.54;100097.72;5012024;28;948;-58
2022/01/23 11:25:52;;;;;;;;;;;;;;;1.93;38.89;100100.84;5011941;28;911;-58
2022/01/23 11:40:38;;;;;;;;;;;;;;;2.35;39.02;100095.25;5012390;28;631;-56
2022/01/23 11:54:49;;;;;;;;;;;;;;;1.59;39.85;100099.25;5012053;28;671;-58
2022/01/23 11:57:34;;;;;;;;;;;;;;;2.51;38.50;100086.38;5011576;28;1403;-57
2022/01/23 12:00:20;;;;;;;;;;;;;;;2.74;36.99;100105.84;5011812;28;954;-57
2022/01/23 12:03:05;;;;;;;;;;;;;;;2.36;37.49;100090.59;5011623;28;841;-58
2022/01/23 12:05:32;;;;;;;;;;;;;;;1.79;36.95;100089.44;4993944;28;1304;-58
2022/01/23 12:08:15;;;;;;;;;;;;;;;1.47;38.64;100091.03;5011787;28;809;-57
2022/01/23 12:11:04;;;;;;;;;;;;;;;0.90;41.32;100108.78;5011405;28;1893;-56
2022/01/23 12:18:50;;;;;;;;;;;;;;;1.15;41.98;100098.81;5011518;28;725;-56
2022/01/23 12:21:27;;;;;;;;;;;;;;;1.15;40.87;100101.53;5011531;28;859;-56
2022/01/23 12:24:00;;;;;;;;;;;;;;;1.09;41.24;100100.13;5011759;28;832;-56
2022/01/23 12:26:27;;;;;;;;;;;;;;;0.95;42.08;100095.75;5011444;28;855;-56
2022/01/23 12:28:54;;;;;;;;;;;;;;;0.84;42.32;100100.00;5011392;28;973;-58
2022/01/23 12:31:23;;;;;;;;;;;;;;;0.79;43.00;100108.34;5011661;28;1910;-56
2022/01/23 12:33:52;;;;;;;;;;;;;;;0.61;42.62;100113.88;5011195;28;963;-57
2022/01/23 12:36:20;;;;;;;;;;;;;;;0.54;43.44;100112.81;5011466;28;817;-56
2022/01/23 12:38:48;;;;;;;;;;;;;;;0.53;43.56;100108.47;5011226;28;915;-58
2022/01/23 12:41:15;;;;;;;;;;;;;;;0.42;44.28;100113.47;5011273;28;919;-58
2022/01/23 12:43:42;;;;;;;;;;;;;;;0.41;44.07;100111.91;5011299;28;844;-58
2022/01/23 12:46:10;;;;;;;;;;;;;;;0.38;44.32;100107.91;5011312;28;923;-58
2022/01/23 12:48:38;;;;;;;;;;;;;;;0.47;43.99;100107.06;4993668;28;1051;-58
2022/01/23 12:51:13;;;;;;;;;;;;;;;0.53;44.30;100109.25;5011444;28;1936;-58
2022/01/23 12:53:42;;;;;;;;;;;;;;;0.57;44.04;100102.03;4997563;28;1408;-57
2022/01/23 12:56:10;;;;;;;;;;;;;;;0.53;44.06;100117.44;5014774;28;797;-57
2022/01/23 12:58:37;;;;;;;;;;;;;;;0.54;44.73;100120.97;4997365;28;837;-58
2022/01/23 13:01:08;;;;;;;;;;;;;;;0.49;44.74;100116.50;5014704;28;833;-57
2022/01/23 13:03:37;;;;;;;;;;;;;;;0.38;44.51;100117.97;5014597;28;927;-58
2022/01/23 13:06:07;;;;;;;;;;;;;;;0.36;44.69;100129.19;5014624;28;876;-58
2022/01/23 13:08:38;;;;;;;;;;;;;;;0.50;44.48;100120.81;5014544;28;931;-57
2022/01/23 13:13:49;;;;;;;;;;;;;;;0.65;44.28;100122.19;5014520;28;714;-57
2022/01/23 13:16:25;;;;;;;;;;;;;;;0.45;45.69;100120.19;5014281;28;1147;-58
2022/01/23 13:19:31;;;;;;;;;;;;;;;0.23;46.46;100118.53;5014562;28;962;-58
2022/01/23 13:30:43;;;;;;;;;;;;;;;0.04;48.13;100127.03;4915546;29;1962;-58
2022/01/23 13:33:09;;;;;;;;;;;;;;;0.07;47.99;100138.06;4978080;28;1526;-57
2022/01/23 13:35:40;;;;;;;;;;;;;;;0.11;48.23;100132.81;5014336;28;967;-57
2022/01/23 13:38:12;;;;;;;;;;;;;;;0.20;48.40;100133.56;5014487;28;912;-57
2022/01/23 13:40:41;;;;;;;;;;;;;;;0.25;48.15;100138.03;5014169;28;885;-57
2022/01/23 13:59:23;;;;;;;;;;;;;;;-1.11;56.54;100165.34;5013709;28;698;-57
2022/01/23 14:01:54;;;;;;;;;;;;;;;-1.46;61.50;100179.59;5013541;28;829;-57
2022/01/23 14:04:22;;;;;;;;;;;;;;;-1.77;65.03;100171.50;5013488;28;1029;-57
2022/01/23 14:06:49;;;;;;;;;;;;;;;-1.90;66.09;100186.72;5013777;28;1037;-57
2022/01/23 14:09:16;;;;;;;;;;;;;;;-2.06;67.37;100177.38;5013660;28;1882;-57
2022/01/23 14:11:44;;;;;;;;;;;;;;;-2.15;68.69;100188.13;5013702;28;840;-57
2022/01/23 14:14:25;;;;;;;;;;;;;;;-2.17;67.74;100184.94;5013503;28;812;-57
2022/01/23 14:16:53;;;;;;;;;;;;;;;-2.15;68.40;100185.44;5013407;28;860;-57
2022/01/23 14:19:19;;;;;;;;;;;;;;;-2.12;68.21;100189.44;5013294;28;821;-57
2022/01/23 14:21:47;;;;;;;;;;;;;;;-2.12;67.90;100184.81;5013316;28;836;-58
2022/01/23 14:24:24;;;;;;;;;;;;;;;-2.07;68.12;100189.28;4995644;28;1582;-58
2022/01/23 14:26:58;;;;;;;;;;;;;;;-2.00;67.98;100186.97;5013093;28;1724;-58
2022/01/23 14:29:24;;;;;;;;;;;;;;;-1.95;66.59;100178.69;5013014;28;1914;-57
2022/01/23 14:32:12;;;;;;;;;;;;;;;-1.87;63.60;100172.53;5013033;28;930;-58
2022/01/23 14:34:39;;;;;;;;;;;;;;;-1.79;61.19;100181.84;5013131;28;933;-58
2022/01/23 14:37:06;;;;;;;;;;;;;;;-1.77;60.33;100186.94;5012913;28;825;-58
2022/01/23 14:39:32;;;;;;;;;;;;;;;-1.78;58.98;100188.06;5012858;28;975;-57
2022/01/23 14:42:19;;;;;;;;;;;;;;;-1.71;59.29;100180.28;5012870;28;848;-58
2022/01/23 14:44:46;;;;;;;;;;;;;;;-1.68;59.33;100179.66;5012719;28;1380;-58
2022/01/23 14:47:13;;;;;;;;;;;;;;;-1.70;58.55;100179.19;5012701;28;924;-58
2022/01/23 14:49:44;;;;;;;;;;;;;;;-1.77;58.83;100190.47;5012659;28;1938;-58
2022/01/23 14:52:14;;;;;;;;;;;;;;;-1.80;58.34;100179.44;5012473;28;1124;-58
2022/01/23 14:54:41;;;;;;;;;;;;;;;-1.82;58.12;100196.00;5012535;28;832;-58
2022/01/23 14:57:11;;;;;;;;;;;;;;;-1.86;59.25;100190.41;5012585;28;860;-58
2022/01/23 14:59:38;;;;;;;;;;;;;;;-2.01;59.67;100192.69;5012485;28;868;-58
2022/01/23 15:02:05;;;;;;;;;;;;;;;-2.09;60.25;100205.06;5012484;28;872;-58
2022/01/23 15:04:44;;;;;;;;;;;;;;;-2.12;59.86;100205.69;5012484;28;891;-58
2022/01/23 15:07:15;;;;;;;;;;;;;;;-2.11;60.15;100210.00;5012282;28;904;-58
2022/01/23 15:09:42;;;;;;;;;;;;;;;-2.12;59.31;100197.56;5012306;28;1914;-58
2022/01/23 15:12:09;;;;;;;;;;;;;;;-2.11;60.22;100208.09;5012265;28;914;-58
2022/01/23 15:14:35;;;;;;;;;;;;;;;-2.11;59.34;100202.66;5011690;28;1227;-58
2022/01/23 15:17:02;;;;;;;;;;;;;;;-2.13;60.73;100195.97;5012234;28;832;-58
2022/01/23 15:19:28;;;;;;;;;;;;;;;-2.14;60.47;100208.69;4994660;28;1317;-58
2022/01/23 15:21:55;;;;;;;;;;;;;;;-2.17;61.18;100203.09;5012130;28;833;-58
2022/01/23 15:24:21;;;;;;;;;;;;;;;-2.20;60.88;100212.63;5012090;28;911;-58
2022/01/23 15:26:48;;;;;;;;;;;;;;;-2.28;61.58;100211.47;5012047;28;923;-58
2022/01/23 15:29:15;;;;;;;;;;;;;;;-2.31;62.54;100222.88;5012256;28;1902;-58
2022/01/23 15:31:41;;;;;;;;;;;;;;;-2.37;62.91;100213.31;5012369;28;840;-58
2022/01/23 15:34:08;;;;;;;;;;;;;;;-2.37;62.83;100223.31;5011906;28;981;-58
2022/01/23 15:36:36;;;;;;;;;;;;;;;-2.41;63.10;100225.84;4994457;28;1586;-58
2022/01/23 15:39:05;;;;;;;;;;;;;;;-2.36;62.17;100224.94;5011858;28;813;-58
2022/01/23 15:41:32;;;;;;;;;;;;;;;-2.34;62.49;100236.25;5011959;28;832;-58
2022/01/23 15:43:59;;;;;;;;;;;;;;;-2.29;62.25;100241.53;5011796;28;983;-58
2022/01/23 15:46:25;;;;;;;;;;;;;;;-2.26;62.42;100241.75;5011705;28;964;-58
2022/01/23 15:48:52;;;;;;;;;;;;;;;-2.26;61.31;100247.16;5011832;28;892;-58
2022/01/23 15:51:18;;;;;;;;;;;;;;;-2.19;61.19;100249.44;5011627;28;1894;-56
2022/01/23 15:53:45;;;;;;;;;;;;;;;-2.17;61.67;100262.69;5011674;28;817;-56
2022/01/23 15:56:11;;;;;;;;;;;;;;;-2.23;62.27;100278.25;5011733;28;935;-56
2022/01/23 15:58:38;;;;;;;;;;;;;;;-2.34;65.38;100291.19;5011720;28;817;-57
2022/01/23 16:01:04;;;;;;;;;;;;;;;-2.44;66.13;100291.41;4994091;28;1683;-56
2022/01/23 16:03:31;;;;;;;;;;;;;;;-2.56;68.26;100296.53;5011687;28;921;-56
2022/01/23 16:05:58;;;;;;;;;;;;;;;-2.68;68.40;100297.84;5011658;28;879;-56
2022/01/23 16:08:25;;;;;;;;;;;;;;;-2.73;69.49;100305.25;5011936;28;864;-56
2022/01/23 16:10:51;;;;;;;;;;;;;;;-2.84;70.50;100311.97;5011511;28;1889;-56
2022/01/23 16:13:18;;;;;;;;;;;;;;;-2.92;71.54;100308.88;5011589;28;828;-56
2022/01/23 16:15:44;;;;;;;;;;;;;;;-2.94;71.30;100310.28;5011225;28;1643;-56
2022/01/23 16:18:11;;;;;;;;;;;;;;;-2.95;71.89;100306.75;5011556;28;855;-56
2022/01/23 16:20:38;;;;;;;;;;;;;;;-2.96;72.20;100323.31;5011463;28;880;-56
2022/01/23 16:23:04;;;;;;;;;;;;;;;-2.95;72.33;100330.31;5011339;28;884;-55
2022/01/23 16:25:30;;;;;;;;;;;;;;;-2.96;72.68;100323.31;5011527;28;868;-56
2022/01/23 16:27:57;;;;;;;;;;;;;;;-2.99;73.03;100324.69;5014904;28;894;-56
2022/01/23 16:30:24;;;;;;;;;;;;;;;-3.02;73.68;100324.50;5015416;28;1914;-57
2022/01/23 16:32:50;;;;;;;;;;;;;;;-3.06;74.82;100328.91;5015334;28;947;-56
2022/01/23 16:35:19;;;;;;;;;;;;;;;-3.20;75.90;100323.44;5015352;28;1024;-56
2022/01/23 16:37:46;;;;;;;;;;;;;;;-3.27;76.72;100326.53;4997648;28;957;-56
2022/01/23 16:40:13;;;;;;;;;;;;;;;-3.38;78.01;100328.63;5014996;28;976;-56
2022/01/23 16:42:39;;;;;;;;;;;;;;;-3.40;79.00;100330.81;5015106;28;915;-56
2022/01/23 16:45:05;;;;;;;;;;;;;;;-3.47;79.60;100335.81;5015192;28;884;-56
2022/01/23 16:47:32;;;;;;;;;;;;;;;-3.47;79.68;100326.91;5015098;28;911;-56